createdAt,value
2023-03-08T00:02:48.760Z,4.82
2023-03-08T00:09:50.305Z,5.05
2023-03-08T00:16:51.870Z,4.80
2023-03-08T00:23:54.058Z,5.05
2023-03-08T00:31:00.031Z,6.75
2023-03-08T00:38:01.653Z,4.90
2023-03-08T00:45:03.425Z,7.40
2023-03-08T00:52:05.703Z,10.07
2023-03-08T00:59:07.271Z,7.30
2023-03-08T01:06:10.807Z,7.20
2023-03-08T01:13:12.501Z,7.50
2023-03-08T01:20:14.128Z,6.85
2023-03-08T01:27:16.841Z,5.20
2023-03-08T01:34:18.453Z,8.80
2023-03-08T01:41:29.757Z,5.88
2023-03-08T01:48:51.314Z,3.92
2023-03-08T01:55:54.058Z,8.27
2023-03-08T02:03:09.071Z,7.78
2023-03-08T02:10:11.451Z,5.13
2023-03-08T02:17:13.050Z,9.70
2023-03-08T02:24:22.215Z,10.88
2023-03-08T02:31:23.768Z,9.75
2023-03-08T02:38:25.337Z,6.70
2023-03-08T02:45:26.936Z,14.57
2023-03-08T02:52:28.478Z,11.35
2023-03-08T02:59:30.897Z,6.80
2023-03-08T03:06:33.760Z,10.60
2023-03-08T03:13:35.833Z,14.23
2023-03-08T03:20:37.718Z,11.75
2023-03-08T03:27:39.366Z,8.20
2023-03-08T03:34:41.846Z,7.05
2023-03-08T03:41:44.292Z,7.63
2023-03-08T03:48:48.703Z,8.55
2023-03-08T03:55:53.891Z,13.77
2023-03-08T04:02:55.773Z,12.50
2023-03-08T04:09:57.649Z,18.02
2023-03-08T04:17:00.330Z,10.23
2023-03-08T04:24:11.035Z,9.82
2023-03-08T04:31:14.669Z,10.07
2023-03-08T04:38:17.162Z,11.20
2023-03-08T04:45:21.198Z,8.10
2023-03-08T04:52:22.964Z,10.57
2023-03-08T04:59:24.938Z,8.35
2023-03-08T05:06:29.446Z,9.85
2023-03-08T05:13:37.048Z,9.93
2023-03-08T05:20:39.656Z,9.65
2023-03-08T05:27:41.678Z,9.60
2023-03-08T05:34:44.387Z,15.73
2023-03-08T05:41:51.917Z,13.98
2023-03-08T05:49:00.990Z,11.45
2023-03-08T05:56:15.621Z,10.60
2023-03-08T06:03:23.127Z,10.65
2023-03-08T06:10:25.192Z,10.50
2023-03-08T06:17:27.912Z,7.90
2023-03-08T06:24:31.360Z,8.25
2023-03-08T06:31:35.689Z,8.70
2023-03-08T06:38:40.214Z,7.70
2023-03-08T06:45:42.043Z,6.18
2023-03-08T06:52:43.980Z,14.20
2023-03-08T06:59:46.301Z,11.80
2023-03-08T07:06:47.849Z,9.05
2023-03-08T07:13:49.393Z,10.02
2023-03-08T07:20:57.051Z,9.73
2023-03-08T07:27:59.343Z,12.50
2023-03-08T07:35:00.930Z,11.48
2023-03-08T07:42:02.457Z,11.88
2023-03-08T07:49:04.034Z,12.93
2023-03-08T07:56:05.985Z,9.45
2023-03-08T08:03:07.540Z,10.40
2023-03-08T08:10:09.850Z,12.45
2023-03-08T08:17:11.545Z,11.07
2023-03-08T08:24:13.136Z,14.20
2023-03-08T08:31:16.470Z,9.75
2023-03-08T08:38:18.041Z,10.77
2023-03-08T08:45:19.627Z,8.55
2023-03-08T08:52:21.332Z,11.70
2023-03-08T08:59:22.967Z,8.57
2023-03-08T09:06:24.741Z,9.73
2023-03-08T09:13:26.348Z,9.65
2023-03-08T09:20:27.875Z,9.35
2023-03-08T09:27:29.553Z,10.10
2023-03-08T09:34:31.230Z,8.73
2023-03-08T09:41:41.660Z,7.22
2023-03-08T09:48:44.878Z,7.25
2023-03-08T09:55:49.509Z,7.38
2023-03-08T10:03:18.936Z,8.07
2023-03-08T10:10:38.400Z,12.27
2023-03-08T10:18:10.526Z,8.65
2023-03-08T10:25:31.300Z,8.13
2023-03-08T10:32:33.141Z,9.02
2023-03-08T10:39:36.274Z,9.45
2023-03-08T10:46:45.137Z,7.90
2023-03-08T10:53:56.648Z,7.60
2023-03-08T11:01:00.308Z,7.40
2023-03-08T11:08:01.864Z,8.43
2023-03-08T11:15:12.793Z,9.90
2023-03-08T11:22:27.007Z,8.35
2023-03-08T11:29:43.458Z,10.27
2023-03-08T11:37:00.135Z,10.43
2023-03-08T11:44:17.493Z,35.88
2023-03-08T11:51:42.313Z,88.65
2023-03-08T11:58:50.952Z,9.02
2023-03-08T12:05:55.510Z,7.85
2023-03-08T12:13:04.970Z,7.78
2023-03-08T12:20:08.161Z,7.85
2023-03-08T12:27:35.147Z,7.95
2023-03-08T12:34:37.782Z,6.50
2023-03-08T12:41:39.343Z,7.05
2023-03-08T12:48:48.233Z,8.70
2023-03-08T12:56:29.970Z,11.30
2023-03-08T13:03:39.605Z,11.63
2023-03-08T13:10:52.389Z,7.75
2023-03-08T13:18:01.055Z,9.32
2023-03-08T13:25:07.050Z,9.10
2023-03-08T13:32:13.558Z,7.30
2023-03-08T13:39:26.210Z,9.68
2023-03-08T13:46:27.784Z,9.73
2023-03-08T13:53:35.429Z,8.02
2023-03-08T14:00:37.114Z,7.40
2023-03-08T14:07:38.702Z,7.80
2023-03-08T14:14:40.675Z,12.23
2023-03-08T14:21:59.544Z,8.95
2023-03-08T14:29:17.988Z,10.43
2023-03-08T14:36:19.552Z,10.65
2023-03-08T14:43:23.024Z,11.48
2023-03-08T14:50:34.236Z,9.77
2023-03-08T14:57:35.784Z,8.57
2023-03-08T15:04:37.715Z,21.65
2023-03-08T15:11:39.357Z,15.85
2023-03-08T15:18:40.888Z,22.92
2023-03-08T15:25:42.533Z,17.70
2023-03-08T15:32:44.519Z,25.65
2023-03-08T15:39:46.337Z,26.70
2023-03-08T15:46:47.985Z,29.45
2023-03-08T15:53:49.788Z,24.30
2023-03-08T16:00:52.148Z,40.75
2023-03-08T16:07:59.265Z,7.55
2023-03-08T16:15:00.875Z,15.55
2023-03-08T16:22:02.691Z,7.65
2023-03-08T16:29:04.470Z,13.07
2023-03-08T16:36:06.223Z,13.30
2023-03-08T16:43:08.252Z,20.27
2023-03-08T16:50:12.245Z,16.17
2023-03-08T16:57:19.098Z,12.02
2023-03-08T17:04:22.654Z,13.95
2023-03-08T17:11:25.944Z,18.77
2023-03-08T17:18:27.522Z,20.30
2023-03-08T17:25:29.120Z,25.55
2023-03-08T17:32:31.611Z,28.58
2023-03-08T17:39:33.205Z,34.97
2023-03-08T17:46:34.914Z,41.40
2023-03-08T17:53:37.452Z,41.17
2023-03-08T18:00:38.990Z,53.15
2023-03-08T18:07:41.855Z,44.40
2023-03-08T18:14:44.538Z,47.40
2023-03-08T18:21:53.174Z,50.70
2023-03-08T18:28:54.871Z,47.75
2023-03-08T18:35:57.400Z,51.70
2023-03-08T18:42:59.046Z,48.67
2023-03-08T18:50:00.672Z,43.53
2023-03-08T18:57:02.191Z,41.53
2023-03-08T19:04:05.986Z,36.60
2023-03-08T19:11:18.511Z,41.17
2023-03-08T19:18:20.070Z,40.15
2023-03-08T19:25:21.611Z,44.17
2023-03-08T19:32:23.293Z,39.80
2023-03-08T19:39:31.921Z,37.53
2023-03-08T19:46:37.496Z,40.47
2023-03-08T19:53:40.174Z,42.65
2023-03-08T20:00:43.889Z,40.42
2023-03-08T20:07:45.492Z,37.60
2023-03-08T20:14:47.055Z,44.80
2023-03-08T20:21:48.674Z,65.32
2023-03-08T20:28:50.580Z,60.13
2023-03-08T20:36:10.242Z,64.22
2023-03-08T20:43:11.913Z,55.03
2023-03-08T20:50:13.489Z,57.13
2023-03-08T20:57:15.069Z,58.83
2023-03-08T21:04:16.571Z,63.28
2023-03-08T21:11:18.277Z,77.82
2023-03-08T21:18:19.838Z,75.35
2023-03-08T21:25:21.422Z,67.80
2023-03-08T21:32:23.147Z,64.93
2023-03-08T21:39:26.719Z,62.33
2023-03-08T21:46:28.399Z,68.43
2023-03-08T21:53:29.989Z,68.93
2023-03-08T22:00:32.095Z,68.70
2023-03-08T22:07:33.614Z,59.97
2023-03-08T22:14:35.150Z,59.00
2023-03-08T22:21:36.725Z,54.95
2023-03-08T22:28:38.333Z,66.80
2023-03-08T22:35:39.912Z,70.18
2023-03-08T22:42:41.541Z,66.80
2023-03-08T22:49:43.107Z,65.53
2023-03-08T22:56:44.728Z,65.28
2023-03-08T23:03:49.141Z,69.97
2023-03-08T23:10:50.644Z,65.32
2023-03-08T23:17:52.168Z,55.58
2023-03-08T23:24:53.667Z,73.70
2023-03-08T23:31:55.287Z,74.88
2023-03-08T23:38:57.675Z,50.22
2023-03-08T23:45:59.245Z,69.03
2023-03-08T23:53:00.801Z,66.97
